sensor_id;sensor_type;location;lat;lon;timestamp;P1;durP1;ratioP1;P2;durP2;ratioP2
77822;SDS011;67013;49.730;17.292;2023-02-28T00:00:26;9.80;;;6.00;;
77822;SDS011;67013;49.730;17.292;2023-02-28T00:02:56;11.50;;;6.30;;
77822;SDS011;67013;49.730;17.292;2023-02-28T00:05:26;8.00;;;4.50;;
77822;SDS011;67013;49.730;17.292;2023-02-28T00:07:56;8.10;;;5.00;;
77822;SDS011;67013;49.730;17.292;2023-02-28T00:10:27;7.00;;;4.50;;
77822;SDS011;67013;49.730;17.292;2023-02-28T00:12:58;9.30;;;5.60;;
77822;SDS011;67013;49.730;17.292;2023-02-28T00:15:30;8.50;;;5.40;;
77822;SDS011;67013;49.730;17.292;2023-02-28T00:18:00;7.50;;;4.50;;
77822;SDS011;67013;49.730;17.292;2023-02-28T00:20:30;9.00;;;5.20;;
77822;SDS011;67013;49.730;17.292;2023-02-28T00:23:00;9.70;;;5.90;;
77822;SDS011;67013;49.730;17.292;2023-02-28T00:25:29;8.40;;;5.10;;
77822;SDS011;67013;49.730;17.292;2023-02-28T00:27:59;8.10;;;5.80;;
77822;SDS011;67013;49.730;17.292;2023-02-28T00:30:28;7.90;;;4.30;;
77822;SDS011;67013;49.730;17.292;2023-02-28T00:32:58;8.50;;;4.80;;
77822;SDS011;67013;49.730;17.292;2023-02-28T00:35:27;8.10;;;5.10;;
77822;SDS011;67013;49.730;17.292;2023-02-28T00:37:57;10.40;;;5.20;;
77822;SDS011;67013;49.730;17.292;2023-02-28T00:40:26;7.50;;;4.80;;
77822;SDS011;67013;49.730;17.292;2023-02-28T00:42:56;7.40;;;4.60;;
77822;SDS011;67013;49.730;17.292;2023-02-28T00:45:25;6.70;;;3.80;;
77822;SDS011;67013;49.730;17.292;2023-02-28T00:47:54;9.80;;;4.90;;
77822;SDS011;67013;49.730;17.292;2023-02-28T00:50:24;9.40;;;5.80;;
77822;SDS011;67013;49.730;17.292;2023-02-28T00:52:54;7.70;;;3.80;;
77822;SDS011;67013;49.730;17.292;2023-02-28T00:55:24;6.90;;;4.50;;
77822;SDS011;67013;49.730;17.292;2023-02-28T00:57:53;6.80;;;4.50;;
77822;SDS011;67013;49.730;17.292;2023-02-28T01:00:23;7.70;;;5.00;;
77822;SDS011;67013;49.730;17.292;2023-02-28T01:02:52;9.00;;;5.20;;
77822;SDS011;67013;49.730;17.292;2023-02-28T01:05:22;8.20;;;4.20;;
77822;SDS011;67013;49.730;17.292;2023-02-28T01:07:51;6.50;;;4.40;;
77822;SDS011;67013;49.730;17.292;2023-02-28T01:10:21;8.90;;;4.40;;
77822;SDS011;67013;49.730;17.292;2023-02-28T01:12:50;7.00;;;4.40;;
77822;SDS011;67013;49.730;17.292;2023-02-28T01:15:20;7.30;;;4.20;;
77822;SDS011;67013;49.730;17.292;2023-02-28T01:17:49;7.40;;;4.30;;
77822;SDS011;67013;49.730;17.292;2023-02-28T01:20:19;7.30;;;4.50;;
77822;SDS011;67013;49.730;17.292;2023-02-28T01:22:49;7.30;;;4.60;;
77822;SDS011;67013;49.730;17.292;2023-02-28T01:25:18;9.80;;;4.90;;
77822;SDS011;67013;49.730;17.292;2023-02-28T01:27:47;9.40;;;4.70;;
77822;SDS011;67013;49.730;17.292;2023-02-28T01:30:17;7.00;;;4.20;;
77822;SDS011;67013;49.730;17.292;2023-02-28T01:32:47;8.70;;;5.00;;
77822;SDS011;67013;49.730;17.292;2023-02-28T01:35:18;7.50;;;4.50;;
77822;SDS011;67013;49.730;17.292;2023-02-28T01:37:47;6.80;;;4.70;;
77822;SDS011;67013;49.730;17.292;2023-02-28T01:40:17;9.10;;;5.30;;
77822;SDS011;67013;49.730;17.292;2023-02-28T01:42:47;7.70;;;4.70;;
77822;SDS011;67013;49.730;17.292;2023-02-28T01:45:21;6.20;;;3.90;;
77822;SDS011;67013;49.730;17.292;2023-02-28T01:47:54;9.40;;;5.10;;
77822;SDS011;67013;49.730;17.292;2023-02-28T01:50:27;7.40;;;4.40;;
77822;SDS011;67013;49.730;17.292;2023-02-28T01:53:01;8.50;;;4.20;;
77822;SDS011;67013;49.730;17.292;2023-02-28T01:55:34;10.10;;;4.80;;
77822;SDS011;67013;49.730;17.292;2023-02-28T01:58:04;7.20;;;4.80;;
77822;SDS011;67013;49.730;17.292;2023-02-28T02:00:36;9.80;;;6.30;;
77822;SDS011;67013;49.730;17.292;2023-02-28T02:03:08;9.30;;;4.90;;
77822;SDS011;67013;49.730;17.292;2023-02-28T02:08:15;6.50;;;4.40;;
77822;SDS011;67013;49.730;17.292;2023-02-28T02:10:48;7.40;;;4.30;;
77822;SDS011;67013;49.730;17.292;2023-02-28T02:16:26;7.20;;;4.70;;
77822;SDS011;67013;49.730;17.292;2023-02-28T02:19:14;7.90;;;4.10;;
77822;SDS011;67013;49.730;17.292;2023-02-28T02:22:02;6.90;;;4.50;;
77822;SDS011;67013;49.730;17.292;2023-02-28T02:25:00;6.20;;;4.10;;
77822;SDS011;67013;49.730;17.292;2023-02-28T02:27:50;8.30;;;4.40;;
77822;SDS011;67013;49.730;17.292;2023-02-28T02:30:44;8.90;;;5.00;;
77822;SDS011;67013;49.730;17.292;2023-02-28T02:36:44;7.50;;;4.50;;
77822;SDS011;67013;49.730;17.292;2023-02-28T02:39:19;8.50;;;4.60;;
77822;SDS011;67013;49.730;17.292;2023-02-28T02:41:58;7.70;;;5.00;;
77822;SDS011;67013;49.730;17.292;2023-02-28T02:44:34;7.90;;;4.90;;
77822;SDS011;67013;49.730;17.292;2023-02-28T02:47:11;7.90;;;4.30;;
77822;SDS011;67013;49.730;17.292;2023-02-28T02:49:45;6.10;;;3.70;;
77822;SDS011;67013;49.730;17.292;2023-02-28T02:52:20;6.80;;;4.50;;
77822;SDS011;67013;49.730;17.292;2023-02-28T02:54:54;8.00;;;4.40;;
77822;SDS011;67013;49.730;17.292;2023-02-28T02:57:27;6.10;;;4.00;;
77822;SDS011;67013;49.730;17.292;2023-02-28T03:00:02;7.10;;;4.90;;
77822;SDS011;67013;49.730;17.292;2023-02-28T03:02:34;6.00;;;3.70;;
77822;SDS011;67013;49.730;17.292;2023-02-28T03:05:06;6.60;;;4.30;;
77822;SDS011;67013;49.730;17.292;2023-02-28T03:07:42;7.30;;;3.80;;
77822;SDS011;67013;49.730;17.292;2023-02-28T03:10:31;8.10;;;4.50;;
77822;SDS011;67013;49.730;17.292;2023-02-28T03:16:22;7.00;;;3.50;;
77822;SDS011;67013;49.730;17.292;2023-02-28T03:19:01;9.30;;;4.60;;
77822;SDS011;67013;49.730;17.292;2023-02-28T03:21:40;7.30;;;4.80;;
77822;SDS011;67013;49.730;17.292;2023-02-28T03:24:17;7.10;;;4.60;;
77822;SDS011;67013;49.730;17.292;2023-02-28T03:26:54;6.20;;;3.70;;
77822;SDS011;67013;49.730;17.292;2023-02-28T03:29:33;7.50;;;4.90;;
77822;SDS011;67013;49.730;17.292;2023-02-28T03:32:08;7.90;;;4.20;;
77822;SDS011;67013;49.730;17.292;2023-02-28T03:34:48;7.00;;;4.70;;
77822;SDS011;67013;49.730;17.292;2023-02-28T03:37:24;8.70;;;5.10;;
77822;SDS011;67013;49.730;17.292;2023-02-28T03:39:57;8.60;;;5.60;;
77822;SDS011;67013;49.730;17.292;2023-02-28T03:42:33;7.10;;;5.30;;
77822;SDS011;67013;49.730;17.292;2023-02-28T03:45:08;8.80;;;5.40;;
77822;SDS011;67013;49.730;17.292;2023-02-28T03:47:44;7.80;;;5.50;;
77822;SDS011;67013;49.730;17.292;2023-02-28T03:50:19;7.50;;;4.80;;
77822;SDS011;67013;49.730;17.292;2023-02-28T03:52:53;9.50;;;5.50;;
77822;SDS011;67013;49.730;17.292;2023-02-28T03:55:27;9.60;;;5.70;;
77822;SDS011;67013;49.730;17.292;2023-02-28T03:58:03;8.80;;;4.90;;
77822;SDS011;67013;49.730;17.292;2023-02-28T04:00:40;8.80;;;5.70;;
77822;SDS011;67013;49.730;17.292;2023-02-28T04:03:13;7.60;;;4.40;;
77822;SDS011;67013;49.730;17.292;2023-02-28T04:05:47;9.80;;;5.30;;
77822;SDS011;67013;49.730;17.292;2023-02-28T04:08:19;9.30;;;4.60;;
77822;SDS011;67013;49.730;17.292;2023-02-28T04:10:50;7.80;;;4.60;;
77822;SDS011;67013;49.730;17.292;2023-02-28T04:13:25;7.60;;;5.60;;
77822;SDS011;67013;49.730;17.292;2023-02-28T04:15:54;6.90;;;3.90;;
77822;SDS011;67013;49.730;17.292;2023-02-28T04:18:24;9.40;;;6.40;;
77822;SDS011;67013;49.730;17.292;2023-02-28T04:20:53;7.90;;;4.40;;
77822;SDS011;67013;49.730;17.292;2023-02-28T04:23:27;8.40;;;5.20;;
77822;SDS011;67013;49.730;17.292;2023-02-28T04:25:57;9.20;;;6.00;;
77822;SDS011;67013;49.730;17.292;2023-02-28T04:28:27;9.40;;;5.20;;
77822;SDS011;67013;49.730;17.292;2023-02-28T04:30:57;8.10;;;4.80;;
77822;SDS011;67013;49.730;17.292;2023-02-28T04:33:27;8.20;;;4.60;;
77822;SDS011;67013;49.730;17.292;2023-02-28T04:36:01;8.90;;;5.10;;
77822;SDS011;67013;49.730;17.292;2023-02-28T04:38:34;7.20;;;4.80;;
77822;SDS011;67013;49.730;17.292;2023-02-28T04:41:05;8.00;;;5.50;;
77822;SDS011;67013;49.730;17.292;2023-02-28T04:43:35;7.80;;;5.00;;
77822;SDS011;67013;49.730;17.292;2023-02-28T04:46:05;8.20;;;5.10;;
77822;SDS011;67013;49.730;17.292;2023-02-28T04:48:35;6.60;;;4.60;;
77822;SDS011;67013;49.730;17.292;2023-02-28T04:51:08;8.20;;;5.10;;
77822;SDS011;67013;49.730;17.292;2023-02-28T04:53:40;5.90;;;3.80;;
77822;SDS011;67013;49.730;17.292;2023-02-28T04:56:11;8.90;;;5.60;;
77822;SDS011;67013;49.730;17.292;2023-02-28T04:58:41;6.70;;;4.50;;
77822;SDS011;67013;49.730;17.292;2023-02-28T05:01:18;8.10;;;4.60;;
77822;SDS011;67013;49.730;17.292;2023-02-28T05:03:50;10.20;;;6.40;;
77822;SDS011;67013;49.730;17.292;2023-02-28T05:06:21;9.10;;;4.80;;
77822;SDS011;67013;49.730;17.292;2023-02-28T05:08:51;9.20;;;4.90;;
77822;SDS011;67013;49.730;17.292;2023-02-28T05:11:22;7.20;;;4.70;;
77822;SDS011;67013;49.730;17.292;2023-02-28T05:13:55;7.00;;;5.30;;
77822;SDS011;67013;49.730;17.292;2023-02-28T05:16:25;7.00;;;4.60;;
77822;SDS011;67013;49.730;17.292;2023-02-28T05:18:54;10.00;;;5.90;;
77822;SDS011;67013;49.730;17.292;2023-02-28T05:21:25;8.30;;;5.20;;
77822;SDS011;67013;49.730;17.292;2023-02-28T05:26:27;7.20;;;4.70;;
77822;SDS011;67013;49.730;17.292;2023-02-28T05:28:58;7.40;;;4.80;;
77822;SDS011;67013;49.730;17.292;2023-02-28T05:31:27;7.20;;;4.90;;
77822;SDS011;67013;49.730;17.292;2023-02-28T05:33:56;5.60;;;3.90;;
77822;SDS011;67013;49.730;17.292;2023-02-28T05:36:26;8.90;;;5.80;;
77822;SDS011;67013;49.730;17.292;2023-02-28T05:38:55;8.10;;;4.40;;
77822;SDS011;67013;49.730;17.292;2023-02-28T05:41:25;8.90;;;5.30;;
77822;SDS011;67013;49.730;17.292;2023-02-28T05:43:54;7.20;;;4.00;;
77822;SDS011;67013;49.730;17.292;2023-02-28T05:46:24;8.30;;;6.30;;
77822;SDS011;67013;49.730;17.292;2023-02-28T05:48:54;8.20;;;4.60;;
77822;SDS011;67013;49.730;17.292;2023-02-28T05:51:26;7.90;;;5.00;;
77822;SDS011;67013;49.730;17.292;2023-02-28T05:53:59;8.10;;;4.80;;
77822;SDS011;67013;49.730;17.292;2023-02-28T05:56:29;8.10;;;4.80;;
77822;SDS011;67013;49.730;17.292;2023-02-28T05:59:01;7.20;;;4.20;;
77822;SDS011;67013;49.730;17.292;2023-02-28T06:01:34;8.00;;;5.50;;
77822;SDS011;67013;49.730;17.292;2023-02-28T06:04:05;10.10;;;6.20;;
77822;SDS011;67013;49.730;17.292;2023-02-28T06:06:37;9.20;;;6.60;;
77822;SDS011;67013;49.730;17.292;2023-02-28T06:09:06;9.70;;;6.10;;
77822;SDS011;67013;49.730;17.292;2023-02-28T06:11:36;10.50;;;6.40;;
77822;SDS011;67013;49.730;17.292;2023-02-28T06:14:05;7.50;;;4.40;;
77822;SDS011;67013;49.730;17.292;2023-02-28T06:16:35;7.30;;;4.60;;
77822;SDS011;67013;49.730;17.292;2023-02-28T06:19:04;10.10;;;6.40;;
77822;SDS011;67013;49.730;17.292;2023-02-28T06:21:34;7.10;;;4.10;;
77822;SDS011;67013;49.730;17.292;2023-02-28T06:24:04;9.90;;;6.00;;
77822;SDS011;67013;49.730;17.292;2023-02-28T06:26:35;9.50;;;5.90;;
77822;SDS011;67013;49.730;17.292;2023-02-28T06:29:04;10.10;;;6.50;;
77822;SDS011;67013;49.730;17.292;2023-02-28T06:31:34;8.20;;;5.00;;
77822;SDS011;67013;49.730;17.292;2023-02-28T06:34:04;8.80;;;5.30;;
77822;SDS011;67013;49.730;17.292;2023-02-28T06:36:34;10.30;;;6.30;;
77822;SDS011;67013;49.730;17.292;2023-02-28T06:39:04;8.80;;;5.60;;
77822;SDS011;67013;49.730;17.292;2023-02-28T06:41:33;9.90;;;6.00;;
77822;SDS011;67013;49.730;17.292;2023-02-28T06:44:08;9.10;;;6.50;;
77822;SDS011;67013;49.730;17.292;2023-02-28T06:46:41;7.90;;;5.20;;
77822;SDS011;67013;49.730;17.292;2023-02-28T06:49:12;7.40;;;5.80;;
77822;SDS011;67013;49.730;17.292;2023-02-28T06:51:42;7.70;;;5.60;;
77822;SDS011;67013;49.730;17.292;2023-02-28T06:54:12;9.80;;;6.60;;
77822;SDS011;67013;49.730;17.292;2023-02-28T06:56:42;10.90;;;6.30;;
77822;SDS011;67013;49.730;17.292;2023-02-28T06:59:11;10.50;;;6.90;;
77822;SDS011;67013;49.730;17.292;2023-02-28T07:01:41;10.20;;;7.80;;
77822;SDS011;67013;49.730;17.292;2023-02-28T07:04:10;10.10;;;6.70;;
77822;SDS011;67013;49.730;17.292;2023-02-28T07:06:40;9.60;;;6.20;;
77822;SDS011;67013;49.730;17.292;2023-02-28T07:09:10;10.70;;;7.30;;
77822;SDS011;67013;49.730;17.292;2023-02-28T07:11:40;9.50;;;7.00;;
77822;SDS011;67013;49.730;17.292;2023-02-28T07:14:10;10.30;;;7.20;;
77822;SDS011;67013;49.730;17.292;2023-02-28T07:16:39;10.80;;;7.10;;
77822;SDS011;67013;49.730;17.292;2023-02-28T07:19:09;9.90;;;7.10;;
77822;SDS011;67013;49.730;17.292;2023-02-28T07:21:38;11.30;;;7.90;;
77822;SDS011;67013;49.730;17.292;2023-02-28T07:24:08;10.20;;;8.30;;
77822;SDS011;67013;49.730;17.292;2023-02-28T07:26:37;9.00;;;6.80;;
77822;SDS011;67013;49.730;17.292;2023-02-28T07:29:07;9.20;;;6.70;;
77822;SDS011;67013;49.730;17.292;2023-02-28T07:31:36;10.60;;;8.60;;
77822;SDS011;67013;49.730;17.292;2023-02-28T07:34:06;11.50;;;9.10;;
77822;SDS011;67013;49.730;17.292;2023-02-28T07:36:35;10.60;;;8.70;;
77822;SDS011;67013;49.730;17.292;2023-02-28T07:39:05;9.00;;;6.80;;
77822;SDS011;67013;49.730;17.292;2023-02-28T07:41:35;10.10;;;8.00;;
77822;SDS011;67013;49.730;17.292;2023-02-28T07:44:09;9.80;;;8.10;;
77822;SDS011;67013;49.730;17.292;2023-02-28T07:46:40;10.00;;;8.40;;
77822;SDS011;67013;49.730;17.292;2023-02-28T07:49:09;11.10;;;9.20;;
77822;SDS011;67013;49.730;17.292;2023-02-28T07:51:38;10.10;;;8.60;;
77822;SDS011;67013;49.730;17.292;2023-02-28T07:54:08;11.20;;;8.10;;
77822;SDS011;67013;49.730;17.292;2023-02-28T07:56:37;11.00;;;9.80;;
77822;SDS011;67013;49.730;17.292;2023-02-28T07:59:07;9.70;;;7.90;;
77822;SDS011;67013;49.730;17.292;2023-02-28T08:01:36;9.70;;;8.40;;
77822;SDS011;67013;49.730;17.292;2023-02-28T08:04:06;9.70;;;8.20;;
77822;SDS011;67013;49.730;17.292;2023-02-28T08:06:35;9.70;;;8.30;;
77822;SDS011;67013;49.730;17.292;2023-02-28T08:09:05;10.40;;;9.30;;
77822;SDS011;67013;49.730;17.292;2023-02-28T08:11:34;9.90;;;8.90;;
77822;SDS011;67013;49.730;17.292;2023-02-28T08:14:04;8.60;;;7.60;;
77822;SDS011;67013;49.730;17.292;2023-02-28T08:16:33;12.00;;;9.70;;
77822;SDS011;67013;49.730;17.292;2023-02-28T08:19:03;12.30;;;9.90;;
77822;SDS011;67013;49.730;17.292;2023-02-28T08:21:32;10.60;;;8.90;;
77822;SDS011;67013;49.730;17.292;2023-02-28T08:24:02;8.60;;;7.70;;
77822;SDS011;67013;49.730;17.292;2023-02-28T08:26:32;8.70;;;7.60;;
77822;SDS011;67013;49.730;17.292;2023-02-28T08:29:01;10.20;;;8.80;;
77822;SDS011;67013;49.730;17.292;2023-02-28T08:31:31;9.60;;;7.50;;
77822;SDS011;67013;49.730;17.292;2023-02-28T08:34:01;8.20;;;6.70;;
77822;SDS011;67013;49.730;17.292;2023-02-28T08:36:34;9.30;;;8.00;;
77822;SDS011;67013;49.730;17.292;2023-02-28T08:39:05;8.20;;;6.70;;
77822;SDS011;67013;49.730;17.292;2023-02-28T08:41:35;6.80;;;5.30;;
77822;SDS011;67013;49.730;17.292;2023-02-28T08:44:05;7.80;;;6.00;;
77822;SDS011;67013;49.730;17.292;2023-02-28T08:46:34;8.30;;;6.80;;
77822;SDS011;67013;49.730;17.292;2023-02-28T08:49:03;8.10;;;6.80;;
77822;SDS011;67013;49.730;17.292;2023-02-28T08:51:34;8.00;;;7.00;;
77822;SDS011;67013;49.730;17.292;2023-02-28T08:54:03;8.00;;;6.70;;
77822;SDS011;67013;49.730;17.292;2023-02-28T08:56:33;8.30;;;6.50;;
77822;SDS011;67013;49.730;17.292;2023-02-28T08:59:03;7.00;;;5.60;;
77822;SDS011;67013;49.730;17.292;2023-02-28T09:01:33;7.00;;;5.90;;
77822;SDS011;67013;49.730;17.292;2023-02-28T09:04:03;6.60;;;5.60;;
77822;SDS011;67013;49.730;17.292;2023-02-28T09:06:34;9.20;;;6.90;;
77822;SDS011;67013;49.730;17.292;2023-02-28T09:09:04;7.80;;;5.90;;
77822;SDS011;67013;49.730;17.292;2023-02-28T09:11:34;8.10;;;7.10;;
77822;SDS011;67013;49.730;17.292;2023-02-28T09:14:04;6.40;;;5.20;;
77822;SDS011;67013;49.730;17.292;2023-02-28T09:16:33;7.60;;;5.80;;
77822;SDS011;67013;49.730;17.292;2023-02-28T09:19:03;7.20;;;6.20;;
77822;SDS011;67013;49.730;17.292;2023-02-28T09:21:32;6.90;;;5.70;;
77822;SDS011;67013;49.730;17.292;2023-02-28T09:24:02;6.70;;;5.80;;
77822;SDS011;67013;49.730;17.292;2023-02-28T09:26:32;6.70;;;5.70;;
77822;SDS011;67013;49.730;17.292;2023-02-28T09:29:01;6.70;;;5.90;;
77822;SDS011;67013;49.730;17.292;2023-02-28T09:31:31;7.60;;;5.80;;
77822;SDS011;67013;49.730;17.292;2023-02-28T09:34:00;6.80;;;5.70;;
77822;SDS011;67013;49.730;17.292;2023-02-28T09:36:31;6.80;;;5.40;;
77822;SDS011;67013;49.730;17.292;2023-02-28T09:39:01;7.90;;;5.80;;
77822;SDS011;67013;49.730;17.292;2023-02-28T09:41:32;7.00;;;5.70;;
77822;SDS011;67013;49.730;17.292;2023-02-28T09:44:16;7.10;;;6.00;;
77822;SDS011;67013;49.730;17.292;2023-02-28T09:46:53;7.60;;;6.00;;
77822;SDS011;67013;49.730;17.292;2023-02-28T09:49:28;7.60;;;6.10;;
77822;SDS011;67013;49.730;17.292;2023-02-28T09:52:05;7.20;;;5.40;;
77822;SDS011;67013;49.730;17.292;2023-02-28T09:54:38;7.00;;;5.40;;
77822;SDS011;67013;49.730;17.292;2023-02-28T09:57:08;8.70;;;6.10;;
77822;SDS011;67013;49.730;17.292;2023-02-28T09:59:48;7.20;;;5.80;;
77822;SDS011;67013;49.730;17.292;2023-02-28T10:02:39;7.60;;;6.00;;
77822;SDS011;67013;49.730;17.292;2023-02-28T10:05:20;6.80;;;5.80;;
77822;SDS011;67013;49.730;17.292;2023-02-28T10:08:03;8.00;;;6.20;;
77822;SDS011;67013;49.730;17.292;2023-02-28T10:10:40;7.10;;;5.40;;
77822;SDS011;67013;49.730;17.292;2023-02-28T10:13:17;7.30;;;5.50;;
77822;SDS011;67013;49.730;17.292;2023-02-28T10:15:52;7.10;;;5.90;;
77822;SDS011;67013;49.730;17.292;2023-02-28T10:18:27;7.70;;;6.40;;
77822;SDS011;67013;49.730;17.292;2023-02-28T10:21:05;7.20;;;5.70;;
77822;SDS011;67013;49.730;17.292;2023-02-28T10:23:41;7.10;;;5.90;;
77822;SDS011;67013;49.730;17.292;2023-02-28T10:26:12;8.50;;;6.10;;
77822;SDS011;67013;49.730;17.292;2023-02-28T10:28:44;8.60;;;6.10;;
77822;SDS011;67013;49.730;17.292;2023-02-28T10:31:15;8.90;;;6.90;;
77822;SDS011;67013;49.730;17.292;2023-02-28T10:33:47;7.80;;;5.40;;
77822;SDS011;67013;49.730;17.292;2023-02-28T10:36:18;8.10;;;7.10;;
77822;SDS011;67013;49.730;17.292;2023-02-28T10:38:49;7.90;;;6.30;;
77822;SDS011;67013;49.730;17.292;2023-02-28T10:41:27;9.80;;;6.80;;
77822;SDS011;67013;49.730;17.292;2023-02-28T10:44:14;6.50;;;4.70;;
77822;SDS011;67013;49.730;17.292;2023-02-28T10:46:50;9.00;;;6.80;;
77822;SDS011;67013;49.730;17.292;2023-02-28T10:49:21;8.60;;;6.50;;
77822;SDS011;67013;49.730;17.292;2023-02-28T10:51:54;8.60;;;6.20;;
77822;SDS011;67013;49.730;17.292;2023-02-28T10:54:27;8.30;;;6.50;;
77822;SDS011;67013;49.730;17.292;2023-02-28T10:57:15;8.30;;;5.80;;
77822;SDS011;67013;49.730;17.292;2023-02-28T10:59:46;10.20;;;7.80;;
77822;SDS011;67013;49.730;17.292;2023-02-28T11:02:31;8.70;;;6.70;;
77822;SDS011;67013;49.730;17.292;2023-02-28T11:05:04;10.90;;;6.70;;
77822;SDS011;67013;49.730;17.292;2023-02-28T11:07:53;8.40;;;6.40;;
77822;SDS011;67013;49.730;17.292;2023-02-28T11:10:29;8.00;;;5.70;;
77822;SDS011;67013;49.730;17.292;2023-02-28T11:13:02;7.30;;;5.60;;
77822;SDS011;67013;49.730;17.292;2023-02-28T11:15:33;6.40;;;4.70;;
77822;SDS011;67013;49.730;17.292;2023-02-28T11:18:05;7.50;;;5.20;;
77822;SDS011;67013;49.730;17.292;2023-02-28T11:23:17;8.20;;;6.70;;
77822;SDS011;67013;49.730;17.292;2023-02-28T11:25:48;6.70;;;5.20;;
77822;SDS011;67013;49.730;17.292;2023-02-28T11:28:27;7.50;;;5.20;;
77822;SDS011;67013;49.730;17.292;2023-02-28T11:31:02;8.30;;;6.00;;
77822;SDS011;67013;49.730;17.292;2023-02-28T11:33:42;6.90;;;4.90;;
77822;SDS011;67013;49.730;17.292;2023-02-28T11:36:16;9.00;;;5.90;;
77822;SDS011;67013;49.730;17.292;2023-02-28T11:38:51;7.10;;;4.70;;
77822;SDS011;67013;49.730;17.292;2023-02-28T11:41:30;10.90;;;7.10;;
77822;SDS011;67013;49.730;17.292;2023-02-28T11:44:18;8.70;;;6.30;;
77822;SDS011;67013;49.730;17.292;2023-02-28T11:46:59;7.30;;;5.40;;
77822;SDS011;67013;49.730;17.292;2023-02-28T11:49:37;7.70;;;5.90;;
77822;SDS011;67013;49.730;17.292;2023-02-28T11:52:17;8.80;;;6.30;;
77822;SDS011;67013;49.730;17.292;2023-02-28T11:55:00;9.90;;;7.10;;
77822;SDS011;67013;49.730;17.292;2023-02-28T11:57:45;8.20;;;5.80;;
77822;SDS011;67013;49.730;17.292;2023-02-28T12:00:33;7.80;;;5.60;;
77822;SDS011;67013;49.730;17.292;2023-02-28T12:03:15;8.40;;;4.90;;
77822;SDS011;67013;49.730;17.292;2023-02-28T12:05:54;7.60;;;5.60;;
77822;SDS011;67013;49.730;17.292;2023-02-28T12:08:34;7.60;;;4.80;;
77822;SDS011;67013;49.730;17.292;2023-02-28T12:11:15;7.30;;;5.60;;
77822;SDS011;67013;49.730;17.292;2023-02-28T12:13:58;8.00;;;5.50;;
77822;SDS011;67013;49.730;17.292;2023-02-28T12:16:48;7.80;;;5.50;;
77822;SDS011;67013;49.730;17.292;2023-02-28T12:19:30;8.20;;;5.70;;
77822;SDS011;67013;49.730;17.292;2023-02-28T12:28:08;8.40;;;5.70;;
77822;SDS011;67013;49.730;17.292;2023-02-28T12:30:41;7.60;;;5.30;;
77822;SDS011;67013;49.730;17.292;2023-02-28T12:33:20;5.90;;;4.10;;
77822;SDS011;67013;49.730;17.292;2023-02-28T12:35:56;7.70;;;4.90;;
77822;SDS011;67013;49.730;17.292;2023-02-28T12:38:27;6.60;;;4.70;;
77822;SDS011;67013;49.730;17.292;2023-02-28T12:41:02;6.80;;;5.40;;
77822;SDS011;67013;49.730;17.292;2023-02-28T12:43:35;9.90;;;6.50;;
77822;SDS011;67013;49.730;17.292;2023-02-28T12:46:11;7.90;;;5.50;;
77822;SDS011;67013;49.730;17.292;2023-02-28T12:48:46;8.60;;;6.20;;
77822;SDS011;67013;49.730;17.292;2023-02-28T12:51:20;9.80;;;5.80;;
77822;SDS011;67013;49.730;17.292;2023-02-28T12:53:56;7.10;;;5.00;;
77822;SDS011;67013;49.730;17.292;2023-02-28T12:56:38;6.10;;;4.80;;
77822;SDS011;67013;49.730;17.292;2023-02-28T12:59:19;8.10;;;5.00;;
77822;SDS011;67013;49.730;17.292;2023-02-28T13:02:00;6.10;;;3.40;;
77822;SDS011;67013;49.730;17.292;2023-02-28T13:33:20;10.00;;;7.60;;
77822;SDS011;67013;49.730;17.292;2023-02-28T13:36:10;8.30;;;7.30;;
77822;SDS011;67013;49.730;17.292;2023-02-28T13:38:52;8.30;;;6.30;;
77822;SDS011;67013;49.730;17.292;2023-02-28T13:41:43;8.40;;;6.10;;
77822;SDS011;67013;49.730;17.292;2023-02-28T13:44:14;8.20;;;6.30;;
77822;SDS011;67013;49.730;17.292;2023-02-28T13:49:56;8.30;;;6.10;;
77822;SDS011;67013;49.730;17.292;2023-02-28T13:52:51;8.40;;;6.00;;
77822;SDS011;67013;49.730;17.292;2023-02-28T13:55:43;7.60;;;5.80;;
77822;SDS011;67013;49.730;17.292;2023-02-28T13:58:26;8.50;;;6.10;;
77822;SDS011;67013;49.730;17.292;2023-02-28T14:01:14;8.20;;;6.10;;
77822;SDS011;67013;49.730;17.292;2023-02-28T14:04:09;8.10;;;5.80;;
77822;SDS011;67013;49.730;17.292;2023-02-28T14:06:51;7.60;;;5.90;;
77822;SDS011;67013;49.730;17.292;2023-02-28T14:09:24;7.20;;;4.80;;
77822;SDS011;67013;49.730;17.292;2023-02-28T14:11:56;8.90;;;5.90;;
77822;SDS011;67013;49.730;17.292;2023-02-28T14:14:55;8.50;;;5.60;;
77822;SDS011;67013;49.730;17.292;2023-02-28T14:17:24;9.50;;;6.00;;
77822;SDS011;67013;49.730;17.292;2023-02-28T14:19:54;9.90;;;6.90;;
77822;SDS011;67013;49.730;17.292;2023-02-28T14:25:17;9.00;;;6.00;;
77822;SDS011;67013;49.730;17.292;2023-02-28T14:27:52;7.70;;;5.00;;
77822;SDS011;67013;49.730;17.292;2023-02-28T14:33:46;9.00;;;5.90;;
77822;SDS011;67013;49.730;17.292;2023-02-28T14:36:30;8.40;;;5.10;;
77822;SDS011;67013;49.730;17.292;2023-02-28T14:39:05;9.20;;;5.20;;
77822;SDS011;67013;49.730;17.292;2023-02-28T14:41:40;10.00;;;5.50;;
77822;SDS011;67013;49.730;17.292;2023-02-28T14:44:14;9.60;;;7.10;;
77822;SDS011;67013;49.730;17.292;2023-02-28T14:46:47;12.10;;;8.50;;
77822;SDS011;67013;49.730;17.292;2023-02-28T14:49:20;10.20;;;7.30;;
77822;SDS011;67013;49.730;17.292;2023-02-28T14:52:02;11.40;;;6.80;;
77822;SDS011;67013;49.730;17.292;2023-02-28T14:54:36;8.50;;;5.70;;
77822;SDS011;67013;49.730;17.292;2023-02-28T14:57:19;10.90;;;7.70;;
77822;SDS011;67013;49.730;17.292;2023-02-28T14:59:58;9.80;;;6.50;;
77822;SDS011;67013;49.730;17.292;2023-02-28T15:02:38;12.50;;;8.90;;
77822;SDS011;67013;49.730;17.292;2023-02-28T15:05:26;9.80;;;7.10;;
77822;SDS011;67013;49.730;17.292;2023-02-28T15:08:04;10.10;;;6.00;;
77822;SDS011;67013;49.730;17.292;2023-02-28T15:10:39;11.40;;;7.60;;
77822;SDS011;67013;49.730;17.292;2023-02-28T15:13:12;12.50;;;8.50;;
77822;SDS011;67013;49.730;17.292;2023-02-28T15:15:44;10.80;;;7.00;;
77822;SDS011;67013;49.730;17.292;2023-02-28T15:18:21;14.00;;;8.70;;
77822;SDS011;67013;49.730;17.292;2023-02-28T15:20:57;12.60;;;9.70;;
77822;SDS011;67013;49.730;17.292;2023-02-28T15:23:31;11.80;;;8.00;;
77822;SDS011;67013;49.730;17.292;2023-02-28T15:26:02;10.20;;;6.90;;
77822;SDS011;67013;49.730;17.292;2023-02-28T15:28:33;11.60;;;7.20;;
77822;SDS011;67013;49.730;17.292;2023-02-28T15:31:25;10.80;;;7.80;;
77822;SDS011;67013;49.730;17.292;2023-02-28T15:33:55;10.90;;;7.90;;
77822;SDS011;67013;49.730;17.292;2023-02-28T15:36:26;8.90;;;6.20;;
77822;SDS011;67013;49.730;17.292;2023-02-28T15:39:00;11.80;;;7.30;;
77822;SDS011;67013;49.730;17.292;2023-02-28T15:41:31;10.40;;;7.30;;
77822;SDS011;67013;49.730;17.292;2023-02-28T15:44:23;10.50;;;8.00;;
77822;SDS011;67013;49.730;17.292;2023-02-28T15:46:58;9.90;;;7.00;;
77822;SDS011;67013;49.730;17.292;2023-02-28T15:49:31;10.20;;;6.70;;
77822;SDS011;67013;49.730;17.292;2023-02-28T15:52:09;11.70;;;8.50;;
77822;SDS011;67013;49.730;17.292;2023-02-28T15:54:44;9.40;;;5.80;;
77822;SDS011;67013;49.730;17.292;2023-02-28T15:57:16;11.80;;;8.20;;
77822;SDS011;67013;49.730;17.292;2023-02-28T15:59:50;11.70;;;8.60;;
77822;SDS011;67013;49.730;17.292;2023-02-28T16:02:22;10.70;;;7.60;;
77822;SDS011;67013;49.730;17.292;2023-02-28T16:05:13;11.50;;;8.80;;
77822;SDS011;67013;49.730;17.292;2023-02-28T16:07:54;12.10;;;8.80;;
77822;SDS011;67013;49.730;17.292;2023-02-28T16:10:24;14.10;;;10.00;;